PANT METAR and TAF weather

Enter ICAO airport designator
Station Type Date Time Source
PANT METAR 2019/04/25 14:53 UTC NOAA

PANT 251453Z AUTO 15005KT 10SM -RA SCT020 BKN024 OVC035 05/03 A3031 RMK RAE30B39 SLP267 P0001 60012 T00500033 56010 TSNO $ VIA AUTODIAL


Station Type Date Time Source
PANT Decoded METAR 2019/04/25 14:53 UTC NOAA

ANNETTE ISLAND AIRPORT, AK, United States (PANT) 55-02N 131-35W 34M
Apr 25, 2019 - 10:53 AM EDT / 2019.04.25 1453 UTC
Wind: from the SSE (150 degrees) at 6 MPH (5 KT):0
Visibility: 10 mile(s):0
Sky conditions: overcast
Weather: light rain
Precipitation last hour: 0.01 inches
Temperature: 41.0 F (5.0 C)
Dew Point: 37.9 F (3.3 C)
Relative Humidity: 88%
Pressure (altimeter): 30.31 in. Hg (1026 hPa)
Pressure tendency: 0.03 inches (1.0 hPa) lower than three hours ago
ob: PANT 251453Z AUTO 15005KT 10SM -RA SCT020 BKN024 OVC035 05/03 A3031 RMK RAE30B39 SLP267 P0001 60012 T00500033 56010 TSNO VIA AUTODIAL
cycle: 15

Station Type Date Time Source
PANT TAF UTC NOAA

Error!

Example: see airport list